createdAt,value
2022-09-30T00:00:43.277Z,83.60
2022-09-30T00:03:11.171Z,83.60
2022-09-30T00:05:39.094Z,83.80
2022-09-30T00:08:06.921Z,83.80
2022-09-30T00:10:34.769Z,84.00
2022-09-30T00:13:02.657Z,84.00
2022-09-30T00:15:32.285Z,84.00
2022-09-30T00:18:00.281Z,84.00
2022-09-30T00:20:30.256Z,83.90
2022-09-30T00:22:58.137Z,83.80
2022-09-30T00:25:25.985Z,83.90
2022-09-30T00:27:53.913Z,83.90
2022-09-30T00:30:21.879Z,83.90
2022-09-30T00:32:51.044Z,84.00
2022-09-30T00:35:22.409Z,84.00
2022-09-30T00:37:50.453Z,84.00
2022-09-30T00:40:20.186Z,83.90
2022-09-30T00:42:47.989Z,83.80
2022-09-30T00:45:18.008Z,83.80
2022-09-30T00:47:48.777Z,83.70
2022-09-30T00:50:29.025Z,83.60
2022-09-30T00:52:59.157Z,83.80
2022-09-30T00:55:30.773Z,83.80
2022-09-30T00:58:00.132Z,84.00
2022-09-30T01:00:28.088Z,84.00
2022-09-30T01:02:56.183Z,84.20
2022-09-30T01:05:25.441Z,84.20
2022-09-30T01:07:55.088Z,84.30
2022-09-30T01:10:23.004Z,84.30
2022-09-30T01:12:51.114Z,84.30
2022-09-30T01:15:19.954Z,84.30
2022-09-30T01:17:51.112Z,84.20
2022-09-30T01:20:27.398Z,83.90
2022-09-30T01:23:05.881Z,83.90
2022-09-30T01:25:54.894Z,83.80
2022-09-30T01:28:36.694Z,83.80
2022-09-30T01:31:11.853Z,83.70
2022-09-30T01:33:46.061Z,83.70
2022-09-30T01:36:21.917Z,83.70
2022-09-30T01:38:50.899Z,83.60
2022-09-30T01:41:23.428Z,83.50
2022-09-30T01:43:55.172Z,83.30
2022-09-30T01:46:30.303Z,83.40
2022-09-30T01:48:59.953Z,83.40
2022-09-30T01:51:31.272Z,83.30
2022-09-30T01:54:01.812Z,83.20
2022-09-30T01:56:34.068Z,83.30
2022-09-30T01:59:03.476Z,83.20
2022-09-30T02:01:35.617Z,83.20
2022-09-30T02:04:06.304Z,83.10
2022-09-30T02:06:36.499Z,83.10
2022-09-30T02:09:06.110Z,83.10
2022-09-30T02:11:36.283Z,82.90
2022-09-30T02:14:06.913Z,82.90
2022-09-30T02:16:39.900Z,83.00
2022-09-30T02:19:12.036Z,83.00
2022-09-30T02:21:44.398Z,83.00
2022-09-30T02:24:15.046Z,83.10
2022-09-30T02:26:44.326Z,83.10
2022-09-30T02:29:14.876Z,83.10
2022-09-30T02:31:45.457Z,83.00
2022-09-30T02:34:17.636Z,83.00
2022-09-30T02:36:47.167Z,83.00
2022-09-30T02:39:17.238Z,83.00
2022-09-30T02:41:46.865Z,82.90
2022-09-30T02:44:15.654Z,83.00
2022-09-30T02:46:50.957Z,83.00
2022-09-30T02:49:21.494Z,83.10
2022-09-30T02:51:57.780Z,83.10
2022-09-30T02:54:29.007Z,83.20
2022-09-30T02:56:59.683Z,83.30
2022-09-30T02:59:27.637Z,83.40
2022-09-30T03:01:56.869Z,83.40
2022-09-30T03:04:28.052Z,83.50
2022-09-30T03:06:56.471Z,83.60
2022-09-30T03:09:25.851Z,83.70
2022-09-30T03:11:57.341Z,83.80
2022-09-30T03:14:32.713Z,83.80
2022-09-30T03:17:22.166Z,83.80
2022-09-30T03:20:00.736Z,83.80
2022-09-30T03:22:42.784Z,83.70
2022-09-30T03:25:20.785Z,83.70
2022-09-30T03:27:54.233Z,83.80
2022-09-30T03:30:26.907Z,83.80
2022-09-30T03:33:04.844Z,83.80
2022-09-30T03:35:38.205Z,83.80
2022-09-30T03:38:10.576Z,83.80
2022-09-30T03:40:41.829Z,84.00
2022-09-30T03:43:15.633Z,84.10
2022-09-30T03:45:47.943Z,84.10
2022-09-30T03:48:17.655Z,84.10
2022-09-30T03:50:46.213Z,84.00
2022-09-30T03:53:14.308Z,84.00
2022-09-30T03:55:48.833Z,83.90
2022-09-30T03:58:17.411Z,83.80
2022-09-30T04:00:48.400Z,83.90
2022-09-30T04:03:18.751Z,83.90
2022-09-30T04:05:47.283Z,83.90
2022-09-30T04:08:15.248Z,84.10
2022-09-30T04:10:44.795Z,84.10
2022-09-30T04:13:13.228Z,84.20
2022-09-30T04:15:41.651Z,84.10
2022-09-30T04:18:09.535Z,84.20
2022-09-30T04:20:39.361Z,84.20
2022-09-30T04:23:07.191Z,84.10
2022-09-30T04:25:35.010Z,83.90
2022-09-30T04:28:03.113Z,84.00
2022-09-30T04:30:33.600Z,84.00
2022-09-30T04:33:01.656Z,84.00
2022-09-30T04:35:30.147Z,84.00
2022-09-30T04:37:59.386Z,84.10
2022-09-30T04:40:27.297Z,84.40
2022-09-30T04:42:58.154Z,84.30
2022-09-30T04:45:26.453Z,84.10
2022-09-30T04:47:54.450Z,84.00
2022-09-30T04:50:22.591Z,84.10
2022-09-30T04:52:53.210Z,84.10
2022-09-30T04:55:22.388Z,84.10
2022-09-30T04:57:50.442Z,84.10
2022-09-30T05:00:20.469Z,84.00
2022-09-30T05:02:48.352Z,83.90
2022-09-30T05:05:16.262Z,83.90
2022-09-30T05:07:44.136Z,84.00
2022-09-30T05:10:12.247Z,84.10
2022-09-30T05:12:41.898Z,84.10
2022-09-30T05:15:10.352Z,84.20
2022-09-30T05:17:38.480Z,84.30
2022-09-30T05:20:10.711Z,84.30
2022-09-30T05:22:38.918Z,84.20
2022-09-30T05:25:07.329Z,84.30
2022-09-30T05:27:35.122Z,84.20
2022-09-30T05:30:06.554Z,84.10
2022-09-30T05:32:34.456Z,84.00
2022-09-30T05:35:03.517Z,84.00
2022-09-30T05:37:31.480Z,84.10
2022-09-30T05:39:59.487Z,84.40
2022-09-30T05:42:28.923Z,84.70
2022-09-30T05:44:56.790Z,84.70
2022-09-30T05:47:26.119Z,84.70
2022-09-30T05:49:56.117Z,84.60
2022-09-30T05:52:24.187Z,84.40
2022-09-30T05:54:52.043Z,85.00
2022-09-30T05:57:20.957Z,85.20
2022-09-30T05:59:48.889Z,85.10
2022-09-30T06:02:16.919Z,85.00
2022-09-30T06:04:46.179Z,84.80
2022-09-30T06:07:14.266Z,84.60
2022-09-30T06:09:42.188Z,83.90
2022-09-30T06:12:10.968Z,83.90
2022-09-30T06:14:38.786Z,82.70
2022-09-30T06:17:06.770Z,82.10
2022-09-30T06:19:34.646Z,81.10
2022-09-30T06:22:03.807Z,79.90
2022-09-30T06:24:31.924Z,80.40
2022-09-30T06:27:00.094Z,78.60
2022-09-30T06:29:27.905Z,77.80
2022-09-30T06:31:55.850Z,76.20
2022-09-30T06:34:24.049Z,74.00
2022-09-30T06:36:51.858Z,72.10
2022-09-30T06:39:21.167Z,70.50
2022-09-30T06:41:49.173Z,69.90
2022-09-30T06:44:25.929Z,69.30
2022-09-30T06:46:54.496Z,69.00
2022-09-30T06:49:22.744Z,68.00
2022-09-30T06:51:52.145Z,67.60
2022-09-30T06:54:21.883Z,66.20
2022-09-30T06:56:50.539Z,64.90
2022-09-30T06:59:18.510Z,65.70
2022-09-30T07:01:46.492Z,66.30
2022-09-30T07:04:16.748Z,64.70
2022-09-30T07:06:45.136Z,63.60
2022-09-30T07:09:13.300Z,62.70
2022-09-30T07:11:43.429Z,64.20
2022-09-30T07:14:13.377Z,64.10
2022-09-30T07:16:41.363Z,64.00
2022-09-30T07:19:10.178Z,62.90
2022-09-30T07:21:38.086Z,63.30
2022-09-30T07:24:06.340Z,59.40
2022-09-30T07:26:34.612Z,62.40
2022-09-30T07:29:04.222Z,61.60
2022-09-30T07:31:34.719Z,59.80
2022-09-30T07:34:07.265Z,59.90
2022-09-30T07:36:37.133Z,60.80
2022-09-30T07:39:06.921Z,59.40
2022-09-30T07:41:37.910Z,59.90
2022-09-30T07:44:09.317Z,61.50
2022-09-30T07:46:39.187Z,61.40
2022-09-30T07:49:09.328Z,61.60
2022-09-30T07:51:38.960Z,61.40
2022-09-30T07:54:08.151Z,61.90
2022-09-30T07:56:58.172Z,61.10
2022-09-30T07:59:28.626Z,62.50
2022-09-30T08:01:56.952Z,60.30
2022-09-30T08:04:26.399Z,60.30
2022-09-30T08:06:56.088Z,57.70
2022-09-30T08:09:25.226Z,58.00
2022-09-30T08:11:53.882Z,58.40
2022-09-30T08:14:22.837Z,57.20
2022-09-30T08:16:52.950Z,56.20
2022-09-30T08:19:23.144Z,51.60
2022-09-30T08:21:53.260Z,50.60
2022-09-30T08:24:22.421Z,48.70
2022-09-30T08:26:50.742Z,44.80
2022-09-30T08:29:25.019Z,43.70
2022-09-30T08:32:00.044Z,43.70
2022-09-30T08:34:33.959Z,43.60
2022-09-30T08:37:06.299Z,41.30
2022-09-30T08:39:37.142Z,39.60
2022-09-30T08:42:39.596Z,39.40
2022-09-30T08:45:14.384Z,38.60
2022-09-30T08:47:47.874Z,37.50
2022-09-30T08:50:20.391Z,37.00
2022-09-30T08:52:50.374Z,36.20
2022-09-30T08:55:21.695Z,37.40
2022-09-30T08:57:49.749Z,37.10
2022-09-30T09:00:19.043Z,36.30
2022-09-30T09:02:51.455Z,36.40
2022-09-30T09:05:25.896Z,36.90
2022-09-30T09:07:57.172Z,38.30
2022-09-30T09:10:29.569Z,37.20
2022-09-30T09:13:00.225Z,36.50
2022-09-30T09:15:32.784Z,36.60
2022-09-30T09:18:23.088Z,37.10
2022-09-30T09:20:55.524Z,38.80
2022-09-30T09:23:23.756Z,37.90
2022-09-30T09:25:54.692Z,37.80
2022-09-30T09:28:26.173Z,37.70
2022-09-30T09:30:57.012Z,38.10
2022-09-30T09:33:29.791Z,38.00
2022-09-30T09:36:03.168Z,37.60
2022-09-30T09:38:35.889Z,38.00
2022-09-30T09:41:10.637Z,37.40
2022-09-30T09:43:44.227Z,36.50
2022-09-30T09:46:15.309Z,36.10
2022-09-30T09:48:44.799Z,36.20
2022-09-30T09:51:17.086Z,35.90
2022-09-30T09:53:49.635Z,33.90
2022-09-30T09:56:19.585Z,33.80
2022-09-30T09:59:06.766Z,34.40
2022-09-30T10:01:35.252Z,33.40
2022-09-30T10:04:15.454Z,33.30
2022-09-30T10:06:44.652Z,33.80
2022-09-30T10:09:23.354Z,32.60
2022-09-30T10:11:51.318Z,32.00
2022-09-30T10:14:21.825Z,31.60
2022-09-30T10:16:50.002Z,31.30
2022-09-30T10:19:21.468Z,31.00
2022-09-30T10:21:51.864Z,30.20
2022-09-30T10:24:28.980Z,29.80
2022-09-30T10:26:56.864Z,29.70
2022-09-30T10:29:29.688Z,29.10
2022-09-30T10:32:00.041Z,29.80
2022-09-30T10:34:31.563Z,30.30
2022-09-30T10:37:02.542Z,30.40
2022-09-30T10:39:31.814Z,30.60
2022-09-30T10:42:03.259Z,30.80
2022-09-30T10:44:31.914Z,30.50
2022-09-30T10:47:00.661Z,30.20
2022-09-30T10:49:31.785Z,30.00
2022-09-30T10:52:00.546Z,29.60
2022-09-30T10:54:43.326Z,30.70
2022-09-30T10:57:15.342Z,30.70
2022-09-30T10:59:43.883Z,30.40
2022-09-30T11:04:59.720Z,30.70
2022-09-30T11:07:30.418Z,31.20
2022-09-30T11:10:01.914Z,30.80
2022-09-30T11:12:33.429Z,31.00
2022-09-30T11:15:04.454Z,31.10
2022-09-30T11:17:34.979Z,31.80
2022-09-30T11:20:12.882Z,32.10
2022-09-30T11:22:44.257Z,32.10
2022-09-30T11:25:14.849Z,32.10
2022-09-30T11:27:53.240Z,31.40
2022-09-30T11:30:22.827Z,32.30
2022-09-30T11:32:57.430Z,31.70
2022-09-30T11:35:31.231Z,32.20
2022-09-30T11:38:04.561Z,32.30
2022-09-30T11:40:36.417Z,31.60
2022-09-30T11:43:09.646Z,32.40
2022-09-30T11:45:43.469Z,33.40
2022-09-30T11:48:18.608Z,34.60
2022-09-30T11:50:51.381Z,34.30
2022-09-30T11:53:27.419Z,36.40
2022-09-30T11:56:06.463Z,37.20
2022-09-30T11:58:41.400Z,37.00
2022-09-30T12:01:15.334Z,35.40
2022-09-30T12:03:45.141Z,33.00
2022-09-30T12:06:16.705Z,31.60
2022-09-30T12:08:48.129Z,32.00
2022-09-30T12:11:17.692Z,31.90
2022-09-30T12:13:51.854Z,31.90
2022-09-30T12:16:21.303Z,32.30
2022-09-30T12:18:50.851Z,32.30
2022-09-30T12:21:23.341Z,33.50
2022-09-30T12:23:55.208Z,32.80
2022-09-30T12:26:23.097Z,32.30
2022-09-30T12:29:11.499Z,32.80
2022-09-30T12:31:51.946Z,33.40
2022-09-30T12:34:31.785Z,33.60
2022-09-30T12:37:07.486Z,33.60
2022-09-30T12:39:44.511Z,34.40
2022-09-30T12:42:35.355Z,36.40
2022-09-30T12:45:36.889Z,36.60
2022-09-30T12:48:06.647Z,36.00
2022-09-30T12:50:36.803Z,38.90
2022-09-30T12:53:14.409Z,38.50
2022-09-30T12:55:42.973Z,38.20
2022-09-30T12:58:18.136Z,38.60
2022-09-30T13:01:00.300Z,38.40
2022-09-30T13:03:28.485Z,38.00
2022-09-30T13:06:06.481Z,37.80
2022-09-30T13:08:52.064Z,37.50
2022-09-30T13:11:33.417Z,37.70
2022-09-30T13:14:04.906Z,37.90
2022-09-30T13:16:54.919Z,38.40
2022-09-30T13:19:32.714Z,39.00
2022-09-30T13:22:16.935Z,39.40
2022-09-30T13:25:04.375Z,40.00
2022-09-30T13:27:35.921Z,39.50
2022-09-30T13:30:24.240Z,39.00
2022-09-30T13:33:06.249Z,39.10
2022-09-30T13:35:34.812Z,41.10
2022-09-30T13:38:16.903Z,40.90
2022-09-30T13:41:03.483Z,39.40
2022-09-30T13:43:35.177Z,39.40
2022-09-30T13:46:07.453Z,40.90
2022-09-30T13:48:36.401Z,39.60
2022-09-30T13:51:08.062Z,38.10
2022-09-30T13:53:37.895Z,38.70
2022-09-30T13:56:07.561Z,39.00
2022-09-30T13:58:48.187Z,38.50
2022-09-30T14:01:26.157Z,38.20
2022-09-30T14:04:06.407Z,38.50
2022-09-30T14:06:39.629Z,38.00
2022-09-30T14:09:25.520Z,38.70
2022-09-30T14:12:03.538Z,38.30
2022-09-30T14:15:00.466Z,38.90
2022-09-30T14:17:35.024Z,38.70
2022-09-30T14:20:11.493Z,38.50
2022-09-30T14:22:39.393Z,39.70
2022-09-30T14:25:14.601Z,39.60
2022-09-30T14:27:56.310Z,39.50
2022-09-30T14:30:26.243Z,40.10
2022-09-30T14:32:54.976Z,41.20
2022-09-30T14:35:24.225Z,41.90
2022-09-30T14:37:53.577Z,41.70
2022-09-30T14:40:24.886Z,42.40
2022-09-30T14:42:53.120Z,42.60
2022-09-30T14:45:26.837Z,42.70
2022-09-30T14:47:58.675Z,43.00
2022-09-30T14:50:28.404Z,42.90
2022-09-30T14:52:58.779Z,43.80
2022-09-30T14:55:28.601Z,44.60
2022-09-30T14:57:58.752Z,44.50
2022-09-30T15:00:31.292Z,44.50
2022-09-30T15:03:02.093Z,44.30
2022-09-30T15:05:30.099Z,44.60
2022-09-30T15:07:58.267Z,44.30
2022-09-30T15:10:26.718Z,44.50
2022-09-30T15:12:56.243Z,44.60
2022-09-30T15:15:28.598Z,45.10
2022-09-30T15:17:56.920Z,45.80
2022-09-30T15:20:29.382Z,45.70
2022-09-30T15:22:58.636Z,46.10
2022-09-30T15:25:26.693Z,46.50
2022-09-30T15:27:54.898Z,47.60
2022-09-30T15:30:24.535Z,47.60
2022-09-30T15:32:58.370Z,47.50
2022-09-30T15:35:27.871Z,47.00
2022-09-30T15:38:06.135Z,48.00
2022-09-30T15:40:50.417Z,48.00
2022-09-30T15:43:31.558Z,48.10
2022-09-30T15:46:09.204Z,48.40
2022-09-30T15:48:38.136Z,48.60
2022-09-30T15:51:20.864Z,49.20
2022-09-30T15:53:51.406Z,50.30
2022-09-30T15:56:24.902Z,51.30
2022-09-30T15:58:56.420Z,51.70
2022-09-30T16:01:26.807Z,51.70
2022-09-30T16:03:56.595Z,51.60
2022-09-30T16:06:27.156Z,51.70
2022-09-30T16:09:02.296Z,52.50
2022-09-30T16:11:31.782Z,53.00
2022-09-30T16:14:00.678Z,53.80
2022-09-30T16:16:31.600Z,55.20
2022-09-30T16:19:01.032Z,56.20
2022-09-30T16:21:50.632Z,56.30
2022-09-30T16:24:37.735Z,56.70
2022-09-30T16:27:21.271Z,56.90
2022-09-30T16:29:49.218Z,58.30
2022-09-30T16:32:17.073Z,58.70
2022-09-30T16:34:45.054Z,59.90
2022-09-30T16:37:13.686Z,60.80
2022-09-30T16:39:41.707Z,61.80
2022-09-30T16:42:13.685Z,62.90
2022-09-30T16:44:44.427Z,63.80
2022-09-30T16:47:16.468Z,64.40
2022-09-30T16:49:44.887Z,65.00
2022-09-30T16:52:13.308Z,65.60
2022-09-30T16:54:42.657Z,66.30
2022-09-30T16:57:13.303Z,66.70
2022-09-30T16:59:41.324Z,67.10
2022-09-30T17:02:14.072Z,67.50
2022-09-30T17:04:42.867Z,68.00
2022-09-30T17:07:12.243Z,68.30
2022-09-30T17:09:40.400Z,68.70
2022-09-30T17:12:08.779Z,68.90
2022-09-30T17:14:36.709Z,69.20
2022-09-30T17:17:04.656Z,69.40
2022-09-30T17:19:35.438Z,69.60
2022-09-30T17:22:04.120Z,69.70
2022-09-30T17:24:32.400Z,69.80
2022-09-30T17:27:02.591Z,70.00
2022-09-30T17:29:32.922Z,70.10
2022-09-30T17:32:01.408Z,70.40
2022-09-30T17:34:30.206Z,70.50
2022-09-30T17:36:59.994Z,70.70
2022-09-30T17:39:28.839Z,71.00
2022-09-30T17:42:14.641Z,71.20
2022-09-30T17:44:42.941Z,71.40
2022-09-30T17:47:11.537Z,71.50
2022-09-30T17:49:39.646Z,71.60
2022-09-30T17:52:11.081Z,71.70
2022-09-30T17:54:39.020Z,71.70
2022-09-30T17:57:07.330Z,71.80
2022-09-30T17:59:35.591Z,71.80
2022-09-30T18:02:03.673Z,72.00
2022-09-30T18:04:31.745Z,72.30
2022-09-30T18:06:59.740Z,72.40
2022-09-30T18:09:29.221Z,72.40
2022-09-30T18:12:00.381Z,72.40
2022-09-30T18:14:33.037Z,72.50
2022-09-30T18:17:01.220Z,72.60
2022-09-30T18:19:29.250Z,72.70
2022-09-30T18:21:57.198Z,72.90
2022-09-30T18:24:39.021Z,73.10
2022-09-30T18:27:08.285Z,73.10
2022-09-30T18:29:36.553Z,73.30
2022-09-30T18:32:05.054Z,73.40
2022-09-30T18:34:34.295Z,73.50
2022-09-30T18:37:06.750Z,73.90
2022-09-30T18:39:35.942Z,74.10
2022-09-30T18:42:05.096Z,74.30
2022-09-30T18:44:37.507Z,74.50
2022-09-30T18:47:06.027Z,74.80
2022-09-30T18:49:34.207Z,75.00
2022-09-30T18:52:03.218Z,75.20
2022-09-30T18:54:31.512Z,75.40
2022-09-30T18:56:59.848Z,75.70
2022-09-30T18:59:27.692Z,76.10
2022-09-30T19:01:58.500Z,76.50
2022-09-30T19:04:26.538Z,76.60
2022-09-30T19:06:54.487Z,76.60
2022-09-30T19:09:24.599Z,76.50
2022-09-30T19:11:53.042Z,76.50
2022-09-30T19:14:21.219Z,76.40
2022-09-30T19:16:51.187Z,76.30
2022-09-30T19:19:22.809Z,76.10
2022-09-30T19:21:51.032Z,76.10
2022-09-30T19:24:18.914Z,76.10
2022-09-30T19:26:48.022Z,76.10
2022-09-30T19:29:16.297Z,76.10
2022-09-30T19:31:45.379Z,76.00
2022-09-30T19:34:23.971Z,76.30
2022-09-30T19:36:59.720Z,76.30
2022-09-30T19:39:36.719Z,76.50
2022-09-30T19:42:10.162Z,76.70
2022-09-30T19:44:38.121Z,76.70
2022-09-30T19:47:05.993Z,76.70
2022-09-30T19:49:33.870Z,76.70
2022-09-30T19:52:10.694Z,76.90
2022-09-30T19:54:42.474Z,77.00
2022-09-30T19:57:10.404Z,77.00
2022-09-30T19:59:38.337Z,77.00
2022-09-30T20:02:06.209Z,77.00
2022-09-30T20:04:35.205Z,77.20
2022-09-30T20:07:04.448Z,77.30
2022-09-30T20:09:32.415Z,77.50
2022-09-30T20:12:00.261Z,77.60
2022-09-30T20:14:46.073Z,77.60
2022-09-30T20:17:14.543Z,77.90
2022-09-30T20:19:42.502Z,78.00
2022-09-30T20:22:11.679Z,78.10
2022-09-30T20:24:39.635Z,78.20
2022-09-30T20:27:08.204Z,78.50
2022-09-30T20:29:36.243Z,78.80
2022-09-30T20:32:04.475Z,79.00
2022-09-30T20:34:36.690Z,79.10
2022-09-30T20:37:06.609Z,79.20
2022-09-30T20:39:39.774Z,79.30
2022-09-30T20:42:07.885Z,79.40
2022-09-30T20:44:35.857Z,79.50
2022-09-30T20:47:03.741Z,79.60
2022-09-30T20:49:31.550Z,79.70
2022-09-30T20:52:06.141Z,79.70
2022-09-30T20:54:35.473Z,79.80
2022-09-30T20:57:07.594Z,79.80
2022-09-30T20:59:35.903Z,79.90
2022-09-30T21:02:04.292Z,80.00
2022-09-30T21:04:32.166Z,80.10
2022-09-30T21:07:00.395Z,80.20
2022-09-30T21:09:28.279Z,80.40
2022-09-30T21:11:56.227Z,80.40
2022-09-30T21:14:25.875Z,80.50
2022-09-30T21:16:53.910Z,80.60
2022-09-30T21:19:21.811Z,80.80
2022-09-30T21:21:49.830Z,80.90
2022-09-30T21:24:17.768Z,80.90
2022-09-30T21:26:45.773Z,81.10
2022-09-30T21:29:13.612Z,81.30
2022-09-30T21:31:42.859Z,81.40
2022-09-30T21:34:13.530Z,81.50
2022-09-30T21:36:41.871Z,81.50
2022-09-30T21:39:09.814Z,81.60
2022-09-30T21:41:37.718Z,81.60
2022-09-30T21:44:05.817Z,81.70
2022-09-30T21:46:35.601Z,81.70
2022-09-30T21:49:05.745Z,81.70
2022-09-30T21:51:35.981Z,81.70
2022-09-30T21:54:04.113Z,81.60
2022-09-30T21:56:31.990Z,81.70
2022-09-30T21:58:59.914Z,81.70
2022-09-30T22:01:28.055Z,81.80
2022-09-30T22:03:55.959Z,81.80
2022-09-30T22:06:25.925Z,81.90
2022-09-30T22:08:54.216Z,82.00
2022-09-30T22:11:25.207Z,81.90
2022-09-30T22:13:55.534Z,81.90
2022-09-30T22:16:26.067Z,81.90
2022-09-30T22:18:54.479Z,81.90
2022-09-30T22:21:22.401Z,81.80
2022-09-30T22:23:52.024Z,81.80
2022-09-30T22:26:21.473Z,81.90
2022-09-30T22:28:54.014Z,81.90
2022-09-30T22:31:23.736Z,81.80
2022-09-30T22:34:10.133Z,81.70
2022-09-30T22:36:55.735Z,81.70
2022-09-30T22:39:25.275Z,81.70
2022-09-30T22:41:58.404Z,81.70
2022-09-30T22:44:26.844Z,81.80
2022-09-30T22:46:55.108Z,81.80
2022-09-30T22:49:24.355Z,81.90
2022-09-30T22:51:52.238Z,82.00
2022-09-30T22:54:20.055Z,82.00
2022-09-30T22:56:50.448Z,81.90
2022-09-30T22:59:18.466Z,81.90
2022-09-30T23:01:46.877Z,82.00
2022-09-30T23:04:14.871Z,81.90
2022-09-30T23:06:42.881Z,82.00
2022-09-30T23:09:10.870Z,82.10
2022-09-30T23:11:39.214Z,82.10
2022-09-30T23:14:08.369Z,82.10
2022-09-30T23:16:36.272Z,82.10
2022-09-30T23:19:04.357Z,82.10
2022-09-30T23:21:33.498Z,82.10
2022-09-30T23:24:02.027Z,82.20
2022-09-30T23:26:31.202Z,82.20
2022-09-30T23:29:00.083Z,82.30
2022-09-30T23:31:29.495Z,82.50
2022-09-30T23:33:58.056Z,82.60
2022-09-30T23:36:29.654Z,82.60
2022-09-30T23:39:02.037Z,82.70
2022-09-30T23:41:29.921Z,82.80
2022-09-30T23:43:57.727Z,82.90
2022-09-30T23:46:25.690Z,82.90
2022-09-30T23:48:54.898Z,83.00
2022-09-30T23:51:22.814Z,83.10
2022-09-30T23:53:51.314Z,83.10
2022-09-30T23:56:19.719Z,83.20
2022-09-30T23:58:47.665Z,83.10
